createdAt,value
2019-03-12T00:02:51.377Z,2.54
2019-03-12T00:06:56.539Z,2.48
2019-03-12T00:11:01.683Z,2.46
2019-03-12T00:15:06.998Z,2.35
2019-03-12T00:19:12.199Z,2.30
2019-03-12T00:23:17.365Z,2.36
2019-03-12T00:27:22.624Z,2.28
2019-03-12T00:31:27.765Z,2.33
2019-03-12T00:35:32.968Z,2.33
2019-03-12T00:39:38.094Z,2.39
2019-03-12T00:43:43.456Z,2.46
2019-03-12T00:47:48.731Z,2.53
2019-03-12T00:51:53.896Z,2.56
2019-03-12T00:55:59.051Z,2.63
2019-03-12T01:00:04.472Z,2.52
2019-03-12T01:04:11.246Z,2.52
2019-03-12T01:08:16.333Z,2.52
2019-03-12T01:12:21.445Z,2.56
2019-03-12T01:16:26.631Z,2.58
2019-03-12T01:20:31.833Z,2.66
2019-03-12T01:24:37.954Z,2.68
2019-03-12T01:28:43.233Z,2.78
2019-03-12T01:32:48.761Z,2.71
2019-03-12T01:36:54.040Z,2.75
2019-03-12T01:40:59.197Z,2.67
2019-03-12T01:45:04.742Z,2.76
2019-03-12T01:49:09.990Z,2.69
2019-03-12T01:53:15.180Z,2.66
2019-03-12T01:57:20.426Z,2.59
2019-03-12T02:01:25.743Z,2.49
2019-03-12T02:05:31.121Z,2.52
2019-03-12T02:09:36.285Z,2.43
2019-03-12T02:13:41.448Z,2.42
2019-03-12T02:17:46.637Z,2.34
2019-03-12T02:21:51.779Z,2.31
2019-03-12T02:25:57.967Z,2.34
2019-03-12T02:30:03.119Z,2.20
2019-03-12T02:34:09.618Z,2.19
2019-03-12T02:38:14.798Z,2.30
2019-03-12T02:42:19.908Z,2.28
2019-03-12T02:46:25.183Z,2.28
2019-03-12T02:50:30.437Z,2.28
2019-03-12T02:54:35.682Z,2.31
2019-03-12T02:58:41.681Z,2.30
2019-03-12T03:02:47.932Z,2.27
2019-03-12T03:07:00.599Z,2.26
2019-03-12T03:11:05.779Z,2.41
2019-03-12T03:15:14.168Z,2.45
2019-03-12T03:19:19.582Z,2.31
2019-03-12T03:23:24.835Z,2.45
2019-03-12T03:27:30.136Z,2.47
2019-03-12T03:31:35.296Z,2.52
2019-03-12T03:35:40.418Z,2.56
2019-03-12T03:39:46.516Z,2.68
2019-03-12T03:43:53.234Z,2.60
2019-03-12T03:47:58.386Z,2.50
2019-03-12T03:52:03.889Z,2.57
2019-03-12T03:56:10.088Z,2.51
2019-03-12T04:00:17.509Z,2.57
2019-03-12T04:04:22.720Z,2.62
2019-03-12T04:08:27.912Z,2.60
2019-03-12T04:12:33.465Z,2.55
2019-03-12T04:16:38.736Z,2.60
2019-03-12T04:20:48.715Z,2.78
2019-03-12T04:24:53.885Z,2.72
2019-03-12T04:28:59.030Z,2.83
2019-03-12T04:33:04.501Z,2.86
2019-03-12T04:37:09.671Z,2.88
2019-03-12T04:41:15.189Z,2.89
2019-03-12T04:45:20.355Z,3.00
2019-03-12T04:49:25.547Z,3.03
2019-03-12T04:53:30.765Z,3.19
2019-03-12T04:57:36.037Z,3.25
2019-03-12T05:01:41.325Z,3.38
2019-03-12T05:05:46.683Z,3.47
2019-03-12T05:09:52.817Z,3.43
2019-03-12T05:14:22.601Z,3.46
2019-03-12T05:18:27.814Z,3.46
2019-03-12T05:22:32.916Z,3.53
2019-03-12T05:26:48.346Z,3.65
2019-03-12T05:30:53.579Z,3.61
2019-03-12T05:34:58.816Z,3.78
2019-03-12T05:39:06.640Z,3.76
2019-03-12T05:43:13.006Z,3.84
2019-03-12T05:47:18.182Z,3.86
2019-03-12T05:51:23.437Z,3.94
2019-03-12T05:55:28.636Z,3.96
2019-03-12T05:59:33.867Z,3.99
2019-03-12T06:03:39.273Z,3.94
2019-03-12T06:07:44.487Z,4.00
2019-03-12T06:11:49.741Z,4.00
2019-03-12T06:15:56.443Z,4.08
2019-03-12T06:20:01.618Z,4.11
2019-03-12T06:24:06.960Z,4.28
2019-03-12T06:28:14.920Z,4.26
2019-03-12T06:32:42.127Z,4.45
2019-03-12T06:37:06.902Z,4.49
2019-03-12T06:41:21.314Z,4.53
2019-03-12T06:45:44.636Z,4.65
2019-03-12T06:50:04.792Z,4.70
2019-03-12T06:54:35.444Z,4.77
2019-03-12T06:58:49.314Z,4.86
2019-03-12T07:03:13.041Z,5.00
2019-03-12T07:07:35.689Z,5.10
2019-03-12T07:11:46.547Z,5.31
2019-03-12T07:16:16.980Z,5.29
2019-03-12T07:20:53.388Z,5.46
2019-03-12T07:25:16.214Z,5.47
2019-03-12T07:29:34.766Z,5.54
2019-03-12T07:33:58.578Z,5.56
2019-03-12T07:38:20.851Z,5.53
2019-03-12T07:42:45.519Z,5.67
2019-03-12T07:47:05.779Z,5.63
2019-03-12T07:51:44.884Z,5.71
2019-03-12T07:56:02.164Z,5.73
2019-03-12T08:00:15.285Z,5.79
2019-03-12T08:04:30.941Z,5.84
2019-03-12T08:08:56.850Z,5.82
2019-03-12T08:13:19.457Z,5.84
2019-03-12T08:17:43.683Z,5.89
2019-03-12T08:22:07.789Z,6.10
2019-03-12T08:26:37.651Z,6.18
2019-03-12T08:31:11.233Z,6.25
2019-03-12T08:35:41.576Z,6.33
2019-03-12T08:39:53.689Z,6.49
2019-03-12T08:44:08.352Z,6.42
2019-03-12T08:48:27.831Z,6.48
2019-03-12T08:52:45.684Z,6.49
2019-03-12T08:57:05.559Z,6.62
2019-03-12T09:01:21.945Z,6.54
2019-03-12T09:05:46.448Z,6.61
2019-03-12T09:10:19.339Z,6.68
2019-03-12T09:14:53.526Z,6.69
2019-03-12T09:19:17.054Z,6.69
2019-03-12T09:23:49.472Z,6.80
2019-03-12T09:28:27.786Z,6.78
2019-03-12T09:33:02.674Z,6.79
2019-03-12T09:37:27.860Z,6.93
2019-03-12T09:41:51.348Z,6.93
2019-03-12T09:46:15.525Z,6.97
2019-03-12T09:50:49.758Z,7.10
2019-03-12T09:55:09.717Z,7.26
2019-03-12T09:59:34.204Z,7.35
2019-03-12T10:03:52.219Z,7.43
2019-03-12T10:08:13.791Z,7.44
2019-03-12T10:12:36.654Z,7.69
2019-03-12T10:17:13.047Z,7.83
2019-03-12T10:21:55.159Z,7.96
2019-03-12T10:26:19.216Z,8.27
2019-03-12T10:30:41.827Z,8.49
2019-03-12T10:35:05.940Z,8.60
2019-03-12T10:40:07.624Z,8.50
2019-03-12T10:44:27.671Z,8.48
2019-03-12T10:48:34.253Z,8.57
2019-03-12T10:52:42.190Z,8.33
2019-03-12T10:56:48.252Z,8.13
2019-03-12T11:00:53.486Z,8.13
2019-03-12T11:04:58.621Z,8.38
2019-03-12T11:09:07.927Z,8.58
2019-03-12T11:13:14.700Z,8.74
2019-03-12T11:17:20.011Z,8.71
2019-03-12T11:21:25.157Z,8.78
2019-03-12T11:25:30.328Z,8.78
2019-03-12T11:29:35.459Z,9.58
2019-03-12T11:33:40.793Z,10.00
2019-03-12T11:37:45.951Z,9.44
2019-03-12T11:41:52.114Z,9.81
2019-03-12T11:45:57.414Z,9.70
2019-03-12T11:50:02.551Z,9.72
2019-03-12T11:54:08.982Z,9.66
2019-03-12T11:58:14.069Z,9.62
2019-03-12T12:02:19.182Z,9.50
2019-03-12T12:06:24.464Z,9.54
2019-03-12T12:10:29.786Z,9.47
2019-03-12T12:14:34.938Z,9.64
2019-03-12T12:18:40.212Z,9.75
2019-03-12T12:22:45.388Z,9.94
2019-03-12T12:26:50.509Z,9.77
2019-03-12T12:30:55.668Z,9.99
2019-03-12T12:35:00.836Z,10.04
2019-03-12T12:39:07.691Z,10.09
2019-03-12T12:43:14.481Z,9.96
2019-03-12T12:47:19.950Z,10.02
2019-03-12T12:51:25.066Z,10.25
2019-03-12T12:55:30.166Z,10.33
2019-03-12T12:59:35.238Z,9.89
2019-03-12T13:03:40.477Z,9.96
2019-03-12T13:07:46.632Z,9.91
2019-03-12T13:11:52.032Z,9.95
2019-03-12T13:15:57.190Z,9.91
2019-03-12T13:20:04.844Z,10.05
2019-03-12T13:24:10.063Z,10.08
2019-03-12T13:28:15.239Z,10.09
2019-03-12T13:32:20.520Z,10.24
2019-03-12T13:36:25.695Z,10.34
2019-03-12T13:40:30.862Z,10.29
2019-03-12T13:44:35.986Z,10.39
2019-03-12T13:48:41.174Z,10.32
2019-03-12T13:52:46.422Z,10.25
2019-03-12T13:56:51.588Z,10.23
2019-03-12T14:00:56.800Z,10.25
2019-03-12T14:05:01.983Z,10.10
2019-03-12T14:09:07.590Z,10.12
2019-03-12T14:13:14.452Z,10.09
2019-03-12T14:17:19.657Z,10.03
2019-03-12T14:21:24.748Z,10.10
2019-03-12T14:25:29.891Z,10.06
2019-03-12T14:29:35.004Z,10.06
2019-03-12T14:33:40.178Z,10.23
2019-03-12T14:37:45.394Z,10.20
2019-03-12T14:41:50.447Z,10.24
2019-03-12T14:45:55.585Z,10.33
2019-03-12T14:50:01.656Z,10.30
2019-03-12T14:54:06.896Z,10.32
2019-03-12T14:58:12.069Z,10.31
2019-03-12T15:02:20.530Z,10.28
2019-03-12T15:06:25.660Z,10.27
2019-03-12T15:10:30.889Z,10.19
2019-03-12T15:14:36.281Z,10.11
2019-03-12T15:18:41.405Z,10.00
2019-03-12T15:22:46.807Z,9.91
2019-03-12T15:26:51.929Z,9.87
2019-03-12T15:30:57.064Z,9.94
2019-03-12T15:35:02.247Z,9.95
2019-03-12T15:39:09.077Z,9.94
2019-03-12T15:43:16.088Z,9.98
2019-03-12T15:47:21.222Z,9.94
2019-03-12T15:51:26.367Z,9.96
2019-03-12T15:55:31.609Z,9.91
2019-03-12T15:59:36.814Z,9.86
2019-03-12T16:03:43.738Z,9.69
2019-03-12T16:07:48.851Z,9.74
2019-03-12T16:11:53.963Z,9.75
2019-03-12T16:15:59.124Z,9.75
2019-03-12T16:20:04.733Z,9.73
2019-03-12T16:24:09.971Z,9.68
2019-03-12T16:28:15.052Z,9.65
2019-03-12T16:32:20.196Z,9.59
2019-03-12T16:36:25.357Z,9.61
2019-03-12T16:40:30.514Z,9.59
2019-03-12T16:44:35.591Z,9.63
2019-03-12T16:48:40.698Z,9.64
2019-03-12T16:52:48.134Z,9.60
2019-03-12T16:56:53.246Z,9.67
2019-03-12T17:00:58.493Z,9.59
2019-03-12T17:05:05.562Z,9.65
2019-03-12T17:09:10.599Z,9.60
2019-03-12T17:13:17.443Z,9.65
2019-03-12T17:17:22.569Z,9.60
2019-03-12T17:21:27.940Z,9.63
2019-03-12T17:25:33.017Z,9.69
2019-03-12T17:29:38.166Z,9.88
2019-03-12T17:33:43.390Z,9.81
2019-03-12T17:37:48.691Z,9.69
2019-03-12T17:41:59.907Z,9.72
2019-03-12T17:46:05.072Z,9.74
2019-03-12T17:50:10.675Z,9.72
2019-03-12T17:54:15.774Z,9.76
2019-03-12T17:58:21.843Z,9.73
2019-03-12T18:02:27.010Z,9.65
2019-03-12T18:06:34.868Z,9.63
2019-03-12T18:10:38.900Z,9.59
2019-03-12T18:14:44.061Z,9.59
2019-03-12T18:18:50.128Z,9.54
2019-03-12T18:22:55.247Z,9.56
2019-03-12T18:27:00.561Z,9.54
2019-03-12T18:31:05.683Z,9.57
2019-03-12T18:35:10.987Z,9.57
2019-03-12T18:39:17.246Z,9.61
2019-03-12T18:43:22.382Z,9.58
2019-03-12T18:47:27.556Z,9.62
2019-03-12T18:51:32.729Z,9.78
2019-03-12T18:56:04.910Z,9.89
2019-03-12T19:00:12.671Z,9.83
2019-03-12T19:04:18.101Z,9.78
2019-03-12T19:08:23.210Z,9.67
2019-03-12T19:12:28.302Z,9.51
2019-03-12T19:16:33.434Z,9.44
2019-03-12T19:20:38.541Z,9.50
2019-03-12T19:24:45.365Z,9.36
2019-03-12T19:28:50.607Z,9.28
2019-03-12T19:33:01.778Z,9.15
2019-03-12T19:37:06.976Z,9.03
2019-03-12T19:41:12.462Z,8.93
2019-03-12T19:45:17.628Z,8.72
2019-03-12T19:49:22.767Z,8.70
2019-03-12T19:53:27.935Z,8.72
2019-03-12T19:57:33.088Z,8.73
2019-03-12T20:01:39.089Z,8.91
2019-03-12T20:05:44.273Z,9.01
2019-03-12T20:10:12.646Z,9.15
2019-03-12T20:14:49.666Z,9.12
2019-03-12T20:19:28.009Z,9.27
2019-03-12T20:24:21.821Z,9.23
2019-03-12T20:29:05.062Z,9.20
2019-03-12T20:34:05.661Z,9.01
2019-03-12T20:38:54.454Z,8.89
2019-03-12T20:43:36.280Z,8.51
2019-03-12T20:48:03.398Z,8.13
2019-03-12T20:52:44.266Z,7.07
2019-03-12T20:57:29.111Z,4.89
2019-03-12T21:02:05.985Z,4.63
2019-03-12T21:06:48.612Z,4.50
2019-03-12T21:11:29.488Z,4.38
2019-03-12T21:16:11.337Z,4.32
2019-03-12T21:20:53.924Z,4.31
2019-03-12T21:25:39.156Z,4.28
2019-03-12T21:29:46.172Z,4.25
2019-03-12T21:33:51.295Z,4.29
2019-03-12T21:37:56.402Z,4.27
2019-03-12T21:42:01.551Z,4.30
2019-03-12T21:46:06.684Z,4.30
2019-03-12T21:50:11.892Z,4.36
2019-03-12T21:54:16.988Z,4.39
2019-03-12T21:58:22.082Z,4.33
2019-03-12T22:02:27.208Z,4.31
2019-03-12T22:06:32.332Z,4.35
2019-03-12T22:10:38.448Z,4.36
2019-03-12T22:14:43.625Z,4.29
2019-03-12T22:18:48.795Z,4.31
2019-03-12T22:23:04.266Z,4.41
2019-03-12T22:27:09.412Z,4.44
2019-03-12T22:31:14.527Z,4.39
2019-03-12T22:35:19.621Z,4.36
2019-03-12T22:39:24.819Z,4.36
2019-03-12T22:43:30.012Z,4.35
2019-03-12T22:47:35.384Z,4.47
2019-03-12T22:51:40.545Z,4.38
2019-03-12T22:55:45.654Z,4.44
2019-03-12T22:59:50.731Z,4.38
2019-03-12T23:04:13.687Z,4.36
2019-03-12T23:08:36.584Z,4.41
2019-03-12T23:12:42.956Z,4.43
2019-03-12T23:16:48.154Z,4.57
2019-03-12T23:20:53.658Z,4.62
2019-03-12T23:24:59.817Z,4.70
2019-03-12T23:29:05.096Z,4.71
2019-03-12T23:33:11.503Z,4.70
2019-03-12T23:37:16.689Z,4.69
2019-03-12T23:41:21.852Z,4.58
2019-03-12T23:45:26.979Z,4.51
2019-03-12T23:49:33.753Z,4.43
2019-03-12T23:53:38.884Z,4.43
2019-03-12T23:57:44.128Z,4.37
